sensor_id;sensor_type;location;lat;lon;timestamp;pressure;altitude;pressure_sealevel;temperature;humidity
40596;BME280;26304;48.794;9.820;2022-07-10T00:03:42;97000.03;;;19.40;62.12
40596;BME280;26304;48.794;9.820;2022-07-10T00:09:25;97003.78;;;19.35;62.16
40596;BME280;26304;48.794;9.820;2022-07-10T00:15:11;97005.16;;;19.26;62.49
40596;BME280;26304;48.794;9.820;2022-07-10T00:20:54;96996.94;;;19.31;62.67
40596;BME280;26304;48.794;9.820;2022-07-10T00:26:36;96995.31;;;19.22;62.84
40596;BME280;26304;48.794;9.820;2022-07-10T00:32:20;96982.56;;;19.24;62.54
40596;BME280;26304;48.794;9.820;2022-07-10T00:38:03;96990.38;;;19.17;63.31
40596;BME280;26304;48.794;9.820;2022-07-10T00:43:52;96992.09;;;19.02;63.64
40596;BME280;26304;48.794;9.820;2022-07-10T00:49:38;96992.22;;;19.13;63.16
40596;BME280;26304;48.794;9.820;2022-07-10T00:55:21;96993.72;;;19.14;63.25
40596;BME280;26304;48.794;9.820;2022-07-10T01:01:04;96977.16;;;19.14;63.35
40596;BME280;26304;48.794;9.820;2022-07-10T01:06:48;96978.97;;;19.10;63.46
40596;BME280;26304;48.794;9.820;2022-07-10T01:12:31;96979.22;;;18.97;63.82
40596;BME280;26304;48.794;9.820;2022-07-10T01:18:14;96973.84;;;18.90;64.24
40596;BME280;26304;48.794;9.820;2022-07-10T01:23:58;96968.28;;;18.95;64.29
40596;BME280;26304;48.794;9.820;2022-07-10T01:29:42;96967.84;;;18.90;64.35
40596;BME280;26304;48.794;9.820;2022-07-10T01:35:25;96968.63;;;18.94;63.87
40596;BME280;26304;48.794;9.820;2022-07-10T01:41:09;96975.34;;;18.87;64.41
40596;BME280;26304;48.794;9.820;2022-07-10T01:46:52;96962.88;;;18.84;64.41
40596;BME280;26304;48.794;9.820;2022-07-10T01:52:35;96965.34;;;18.74;64.93
40596;BME280;26304;48.794;9.820;2022-07-10T01:58:19;96965.34;;;18.74;64.90
40596;BME280;26304;48.794;9.820;2022-07-10T02:04:01;96961.09;;;18.65;65.24
40596;BME280;26304;48.794;9.820;2022-07-10T02:10:01;96957.34;;;18.66;64.83
40596;BME280;26304;48.794;9.820;2022-07-10T02:15:45;96966.25;;;18.58;65.34
40596;BME280;26304;48.794;9.820;2022-07-10T02:21:28;96975.56;;;18.52;65.58
40596;BME280;26304;48.794;9.820;2022-07-10T02:27:10;96966.41;;;18.42;65.64
40596;BME280;26304;48.794;9.820;2022-07-10T02:32:54;96972.38;;;18.39;66.57
40596;BME280;26304;48.794;9.820;2022-07-10T02:38:36;96964.44;;;18.36;66.68
40596;BME280;26304;48.794;9.820;2022-07-10T02:44:19;96969.97;;;18.27;66.75
40596;BME280;26304;48.794;9.820;2022-07-10T02:50:03;96960.84;;;18.21;67.79
40596;BME280;26304;48.794;9.820;2022-07-10T02:55:46;96962.41;;;18.25;67.41
40596;BME280;26304;48.794;9.820;2022-07-10T03:01:28;96972.19;;;18.02;68.26
40596;BME280;26304;48.794;9.820;2022-07-10T03:07:12;96962.81;;;18.04;68.25
40596;BME280;26304;48.794;9.820;2022-07-10T03:12:55;96962.03;;;17.81;69.47
40596;BME280;26304;48.794;9.820;2022-07-10T03:18:37;96970.63;;;17.77;69.18
40596;BME280;26304;48.794;9.820;2022-07-10T03:24:21;96971.78;;;17.80;69.11
40596;BME280;26304;48.794;9.820;2022-07-10T03:30:04;96970.19;;;17.75;69.33
40596;BME280;26304;48.794;9.820;2022-07-10T03:35:47;96971.59;;;17.69;69.46
40596;BME280;26304;48.794;9.820;2022-07-10T03:41:31;96976.78;;;17.66;69.70
40596;BME280;26304;48.794;9.820;2022-07-10T03:47:14;96971.78;;;17.57;69.82
40596;BME280;26304;48.794;9.820;2022-07-10T03:52:57;96967.63;;;17.36;70.81
40596;BME280;26304;48.794;9.820;2022-07-10T03:58:40;96966.25;;;17.42;70.14
40596;BME280;26304;48.794;9.820;2022-07-10T04:04:23;96964.88;;;17.49;70.03
40596;BME280;26304;48.794;9.820;2022-07-10T04:10:06;96965.34;;;17.35;70.42
40596;BME280;26304;48.794;9.820;2022-07-10T04:15:52;96953.47;;;17.41;69.81
40596;BME280;26304;48.794;9.820;2022-07-10T04:21:34;96958.38;;;17.66;69.17
40596;BME280;26304;48.794;9.820;2022-07-10T04:27:18;96970.72;;;17.42;69.93
40596;BME280;26304;48.794;9.820;2022-07-10T04:33:02;96972.88;;;17.56;69.26
40596;BME280;26304;48.794;9.820;2022-07-10T04:38:44;96974.81;;;17.82;68.45
40596;BME280;26304;48.794;9.820;2022-07-10T04:44:27;96983.50;;;17.83;68.47
40596;BME280;26304;48.794;9.820;2022-07-10T04:50:11;96992.38;;;17.74;68.57
40596;BME280;26304;48.794;9.820;2022-07-10T04:55:53;96978.78;;;17.72;68.41
40596;BME280;26304;48.794;9.820;2022-07-10T05:01:36;96973.97;;;17.55;69.11
40596;BME280;26304;48.794;9.820;2022-07-10T05:07:20;96970.00;;;17.22;69.35
40596;BME280;26304;48.794;9.820;2022-07-10T05:13:03;96966.81;;;17.13;69.94
40596;BME280;26304;48.794;9.820;2022-07-10T05:18:45;96978.56;;;17.19;69.22
40596;BME280;26304;48.794;9.820;2022-07-10T05:24:29;96978.41;;;17.12;69.39
40596;BME280;26304;48.794;9.820;2022-07-10T05:30:12;96992.03;;;16.82;69.23
40596;BME280;26304;48.794;9.820;2022-07-10T05:35:55;96992.28;;;16.93;68.50
40596;BME280;26304;48.794;9.820;2022-07-10T05:41:39;96993.13;;;16.97;68.14
40596;BME280;26304;48.794;9.820;2022-07-10T05:47:21;97011.28;;;16.86;67.77
40596;BME280;26304;48.794;9.820;2022-07-10T05:53:04;97005.19;;;17.37;65.63
40596;BME280;26304;48.794;9.820;2022-07-10T05:58:47;97017.63;;;17.59;64.52
40596;BME280;26304;48.794;9.820;2022-07-10T06:04:31;97019.91;;;17.81;63.10
40596;BME280;26304;48.794;9.820;2022-07-10T06:10:13;97029.28;;;17.82;61.90
40596;BME280;26304;48.794;9.820;2022-07-10T06:15:57;97042.94;;;17.87;61.05
40596;BME280;26304;48.794;9.820;2022-07-10T06:21:40;97034.03;;;17.92;60.61
40596;BME280;26304;48.794;9.820;2022-07-10T06:27:22;97032.31;;;17.84;59.31
40596;BME280;26304;48.794;9.820;2022-07-10T06:33:06;97036.91;;;17.87;59.27
40596;BME280;26304;48.794;9.820;2022-07-10T06:38:49;97034.84;;;17.96;59.42
40596;BME280;26304;48.794;9.820;2022-07-10T06:44:31;97049.56;;;18.01;59.46
40596;BME280;26304;48.794;9.820;2022-07-10T06:50:15;97048.53;;;18.05;58.62
40596;BME280;26304;48.794;9.820;2022-07-10T06:55:58;97046.72;;;18.09;58.97
40596;BME280;26304;48.794;9.820;2022-07-10T07:01:40;97048.25;;;18.10;58.33
40596;BME280;26304;48.794;9.820;2022-07-10T07:07:24;97056.63;;;18.16;57.63
40596;BME280;26304;48.794;9.820;2022-07-10T07:13:07;97053.38;;;18.03;57.62
40596;BME280;26304;48.794;9.820;2022-07-10T07:18:50;97051.81;;;17.99;55.98
40596;BME280;26304;48.794;9.820;2022-07-10T07:24:35;97057.81;;;17.99;55.32
40596;BME280;26304;48.794;9.820;2022-07-10T07:30:17;97055.41;;;17.90;54.52
40596;BME280;26304;48.794;9.820;2022-07-10T07:36:00;97061.28;;;18.03;54.63
40596;BME280;26304;48.794;9.820;2022-07-10T07:41:43;97061.53;;;17.98;54.63
40596;BME280;26304;48.794;9.820;2022-07-10T07:47:26;97059.00;;;18.02;54.80
40596;BME280;26304;48.794;9.820;2022-07-10T07:53:09;97061.34;;;18.07;54.15
40596;BME280;26304;48.794;9.820;2022-07-10T07:58:54;97061.41;;;18.10;54.39
40596;BME280;26304;48.794;9.820;2022-07-10T08:04:37;97058.72;;;18.07;54.07
40596;BME280;26304;48.794;9.820;2022-07-10T08:10:21;97065.84;;;18.06;53.84
40596;BME280;26304;48.794;9.820;2022-07-10T08:16:06;97070.69;;;18.04;54.07
40596;BME280;26304;48.794;9.820;2022-07-10T08:21:48;97068.13;;;18.08;54.50
40596;BME280;26304;48.794;9.820;2022-07-10T08:27:31;97069.56;;;18.05;53.97
40596;BME280;26304;48.794;9.820;2022-07-10T08:33:15;97063.63;;;18.08;53.92
40596;BME280;26304;48.794;9.820;2022-07-10T08:38:57;97061.88;;;18.16;53.87
40596;BME280;26304;48.794;9.820;2022-07-10T08:44:40;97061.44;;;18.14;54.05
40596;BME280;26304;48.794;9.820;2022-07-10T08:50:24;97066.78;;;18.18;54.27
40596;BME280;26304;48.794;9.820;2022-07-10T08:56:09;97047.38;;;18.26;54.25
40596;BME280;26304;48.794;9.820;2022-07-10T09:01:52;97040.59;;;18.25;54.43
40596;BME280;26304;48.794;9.820;2022-07-10T09:07:37;97039.94;;;18.31;54.51
40596;BME280;26304;48.794;9.820;2022-07-10T09:13:22;97032.28;;;18.23;54.29
40596;BME280;26304;48.794;9.820;2022-07-10T09:19:16;97039.59;;;18.33;53.86
40596;BME280;26304;48.794;9.820;2022-07-10T09:25:12;97038.25;;;18.43;53.44
40596;BME280;26304;48.794;9.820;2022-07-10T09:30:54;97033.97;;;18.58;53.19
40596;BME280;26304;48.794;9.820;2022-07-10T09:36:38;97037.31;;;18.55;52.62
40596;BME280;26304;48.794;9.820;2022-07-10T09:42:30;97046.59;;;18.48;52.81
40596;BME280;26304;48.794;9.820;2022-07-10T09:48:12;97046.50;;;18.41;52.95
40596;BME280;26304;48.794;9.820;2022-07-10T09:54:00;97049.94;;;18.45;52.32
40596;BME280;26304;48.794;9.820;2022-07-10T09:59:45;97032.34;;;18.49;52.44
40596;BME280;26304;48.794;9.820;2022-07-10T10:05:36;97037.66;;;18.53;52.16
40596;BME280;26304;48.794;9.820;2022-07-10T10:11:20;97038.84;;;18.56;51.50
40596;BME280;26304;48.794;9.820;2022-07-10T10:17:05;97032.13;;;18.62;51.84
40596;BME280;26304;48.794;9.820;2022-07-10T10:22:49;97028.00;;;18.61;51.31
40596;BME280;26304;48.794;9.820;2022-07-10T10:28:33;97035.91;;;18.61;50.79
40596;BME280;26304;48.794;9.820;2022-07-10T10:34:37;97030.63;;;18.61;50.65
40596;BME280;26304;48.794;9.820;2022-07-10T10:40:30;97031.06;;;18.66;49.86
40596;BME280;26304;48.794;9.820;2022-07-10T10:46:23;97044.19;;;18.63;50.24
40596;BME280;26304;48.794;9.820;2022-07-10T10:52:09;97043.38;;;18.59;50.22
40596;BME280;26304;48.794;9.820;2022-07-10T10:58:11;97041.16;;;18.61;49.99
40596;BME280;26304;48.794;9.820;2022-07-10T11:04:17;97041.25;;;18.68;49.53
40596;BME280;26304;48.794;9.820;2022-07-10T11:16:19;97042.66;;;18.62;49.63
40596;BME280;26304;48.794;9.820;2022-07-10T11:22:30;97037.47;;;18.65;48.89
40596;BME280;26304;48.794;9.820;2022-07-10T11:28:25;97039.69;;;18.63;48.83
40596;BME280;26304;48.794;9.820;2022-07-10T11:34:16;97045.28;;;18.62;49.40
40596;BME280;26304;48.794;9.820;2022-07-10T11:40:08;97039.63;;;18.60;48.79
40596;BME280;26304;48.794;9.820;2022-07-10T11:45:51;97031.41;;;18.65;48.02
40596;BME280;26304;48.794;9.820;2022-07-10T11:51:38;97027.28;;;18.64;47.93
40596;BME280;26304;48.794;9.820;2022-07-10T11:57:20;97026.88;;;18.62;47.83
40596;BME280;26304;48.794;9.820;2022-07-10T12:03:16;97025.53;;;18.72;47.69
40596;BME280;26304;48.794;9.820;2022-07-10T12:09:03;97024.84;;;18.78;47.60
40596;BME280;26304;48.794;9.820;2022-07-10T12:14:46;97030.91;;;18.82;46.82
40596;BME280;26304;48.794;9.820;2022-07-10T12:20:29;97028.03;;;18.87;47.33
40596;BME280;26304;48.794;9.820;2022-07-10T12:26:13;97029.34;;;18.78;46.90
40596;BME280;26304;48.794;9.820;2022-07-10T12:31:58;97035.88;;;18.84;47.12
40596;BME280;26304;48.794;9.820;2022-07-10T12:37:48;97030.72;;;18.91;46.15
40596;BME280;26304;48.794;9.820;2022-07-10T12:43:32;97027.41;;;18.98;46.81
40596;BME280;26304;48.794;9.820;2022-07-10T12:49:15;97032.75;;;19.05;46.63
40596;BME280;26304;48.794;9.820;2022-07-10T12:55:08;97041.47;;;19.09;46.35
40596;BME280;26304;48.794;9.820;2022-07-10T13:00:53;97036.16;;;19.05;45.84
40596;BME280;26304;48.794;9.820;2022-07-10T13:06:37;97036.66;;;19.15;46.82
40596;BME280;26304;48.794;9.820;2022-07-10T13:12:21;97034.56;;;19.28;46.81
40596;BME280;26304;48.794;9.820;2022-07-10T13:18:05;97035.28;;;19.24;47.25
40596;BME280;26304;48.794;9.820;2022-07-10T13:23:48;97036.72;;;19.18;47.07
40596;BME280;26304;48.794;9.820;2022-07-10T13:29:30;97034.88;;;19.22;46.97
40596;BME280;26304;48.794;9.820;2022-07-10T13:35:16;97037.59;;;19.30;46.79
40596;BME280;26304;48.794;9.820;2022-07-10T13:40:58;97033.44;;;19.29;46.91
40596;BME280;26304;48.794;9.820;2022-07-10T13:46:41;97042.28;;;19.44;46.32
40596;BME280;26304;48.794;9.820;2022-07-10T13:52:25;97035.53;;;19.46;46.04
40596;BME280;26304;48.794;9.820;2022-07-10T13:58:08;97039.59;;;19.40;45.98
40596;BME280;26304;48.794;9.820;2022-07-10T14:03:51;97031.69;;;19.40;45.54
40596;BME280;26304;48.794;9.820;2022-07-10T14:09:35;97031.38;;;19.45;45.67
40596;BME280;26304;48.794;9.820;2022-07-10T14:15:17;97030.00;;;19.55;45.68
40596;BME280;26304;48.794;9.820;2022-07-10T14:21:00;97040.88;;;19.50;45.55
40596;BME280;26304;48.794;9.820;2022-07-10T14:26:47;97036.81;;;19.59;44.92
40596;BME280;26304;48.794;9.820;2022-07-10T14:32:30;97042.47;;;19.58;44.68
40596;BME280;26304;48.794;9.820;2022-07-10T14:38:12;97036.25;;;19.43;44.40
40596;BME280;26304;48.794;9.820;2022-07-10T14:43:56;97036.34;;;19.50;44.72
40596;BME280;26304;48.794;9.820;2022-07-10T14:49:39;97050.00;;;19.59;44.68
40596;BME280;26304;48.794;9.820;2022-07-10T14:55:21;97034.78;;;19.46;44.08
40596;BME280;26304;48.794;9.820;2022-07-10T15:01:05;97035.25;;;19.55;44.44
40596;BME280;26304;48.794;9.820;2022-07-10T15:06:48;97046.19;;;19.57;44.50
40596;BME280;26304;48.794;9.820;2022-07-10T15:12:30;97035.53;;;19.46;44.54
40596;BME280;26304;48.794;9.820;2022-07-10T15:18:15;97028.81;;;19.52;44.57
40596;BME280;26304;48.794;9.820;2022-07-10T15:23:59;97027.28;;;19.51;44.49
40596;BME280;26304;48.794;9.820;2022-07-10T15:29:41;97016.44;;;19.56;44.46
40596;BME280;26304;48.794;9.820;2022-07-10T15:35:25;97013.03;;;19.56;44.79
40596;BME280;26304;48.794;9.820;2022-07-10T15:41:08;97016.81;;;19.55;44.51
40596;BME280;26304;48.794;9.820;2022-07-10T15:46:50;97012.63;;;19.54;44.57
40596;BME280;26304;48.794;9.820;2022-07-10T15:52:34;97010.88;;;19.65;44.60
40596;BME280;26304;48.794;9.820;2022-07-10T15:58:17;97010.13;;;19.65;44.59
40596;BME280;26304;48.794;9.820;2022-07-10T16:03:59;97008.69;;;19.71;45.03
40596;BME280;26304;48.794;9.820;2022-07-10T16:09:43;97013.91;;;19.67;45.64
40596;BME280;26304;48.794;9.820;2022-07-10T16:15:26;97006.38;;;19.66;45.46
40596;BME280;26304;48.794;9.820;2022-07-10T16:21:08;97004.19;;;19.75;44.54
40596;BME280;26304;48.794;9.820;2022-07-10T16:26:52;96991.34;;;19.73;44.48
40596;BME280;26304;48.794;9.820;2022-07-10T16:32:35;96997.78;;;19.72;44.50
40596;BME280;26304;48.794;9.820;2022-07-10T16:38:17;96998.91;;;19.75;44.11
40596;BME280;26304;48.794;9.820;2022-07-10T16:44:01;97000.78;;;19.74;43.96
40596;BME280;26304;48.794;9.820;2022-07-10T16:49:44;96995.44;;;19.67;45.42
40596;BME280;26304;48.794;9.820;2022-07-10T16:55:27;96992.78;;;19.64;44.71
40596;BME280;26304;48.794;9.820;2022-07-10T17:01:12;96993.44;;;19.53;44.32
40596;BME280;26304;48.794;9.820;2022-07-10T17:06:55;96992.63;;;19.49;44.71
40596;BME280;26304;48.794;9.820;2022-07-10T17:12:38;96988.41;;;19.41;44.25
40596;BME280;26304;48.794;9.820;2022-07-10T17:18:22;96995.50;;;19.37;43.95
40596;BME280;26304;48.794;9.820;2022-07-10T17:24:05;96989.47;;;19.36;44.32
40596;BME280;26304;48.794;9.820;2022-07-10T17:29:47;96995.34;;;19.56;44.82
40596;BME280;26304;48.794;9.820;2022-07-10T17:35:31;97002.19;;;19.61;44.51
40596;BME280;26304;48.794;9.820;2022-07-10T17:41:14;96991.34;;;19.73;44.42
40596;BME280;26304;48.794;9.820;2022-07-10T17:46:56;96994.34;;;19.72;44.07
40596;BME280;26304;48.794;9.820;2022-07-10T17:52:40;97000.47;;;19.76;44.67
40596;BME280;26304;48.794;9.820;2022-07-10T17:58:23;97000.03;;;19.74;44.66
40596;BME280;26304;48.794;9.820;2022-07-10T18:04:05;96994.63;;;19.59;45.33
40596;BME280;26304;48.794;9.820;2022-07-10T18:09:50;97005.09;;;19.52;45.23
40596;BME280;26304;48.794;9.820;2022-07-10T18:15:32;97006.88;;;19.45;45.34
40596;BME280;26304;48.794;9.820;2022-07-10T18:21:17;97011.84;;;19.50;44.99
40596;BME280;26304;48.794;9.820;2022-07-10T18:27:02;97008.91;;;19.55;45.44
40596;BME280;26304;48.794;9.820;2022-07-10T18:32:45;97005.09;;;19.52;45.56
40596;BME280;26304;48.794;9.820;2022-07-10T18:38:45;97006.28;;;19.58;44.92
40596;BME280;26304;48.794;9.820;2022-07-10T18:44:29;97005.63;;;19.69;45.53
40596;BME280;26304;48.794;9.820;2022-07-10T18:50:13;97013.00;;;19.52;45.48
40596;BME280;26304;48.794;9.820;2022-07-10T18:55:56;97011.06;;;19.49;45.56
40596;BME280;26304;48.794;9.820;2022-07-10T19:01:39;97009.97;;;19.50;45.40
40596;BME280;26304;48.794;9.820;2022-07-10T19:07:22;97021.06;;;19.33;45.68
40596;BME280;26304;48.794;9.820;2022-07-10T19:13:04;97018.28;;;18.92;47.02
40596;BME280;26304;48.794;9.820;2022-07-10T19:18:48;97023.38;;;18.81;46.70
40596;BME280;26304;48.794;9.820;2022-07-10T19:24:31;97028.59;;;18.77;47.37
40596;BME280;26304;48.794;9.820;2022-07-10T19:30:13;97033.31;;;18.64;47.40
40596;BME280;26304;48.794;9.820;2022-07-10T19:35:58;97046.53;;;18.68;47.56
40596;BME280;26304;48.794;9.820;2022-07-10T19:41:41;97055.47;;;18.63;47.54
40596;BME280;26304;48.794;9.820;2022-07-10T19:47:23;97054.63;;;18.56;47.58
40596;BME280;26304;48.794;9.820;2022-07-10T19:53:07;97062.97;;;18.61;48.18
40596;BME280;26304;48.794;9.820;2022-07-10T19:58:51;97064.81;;;18.34;48.86
40596;BME280;26304;48.794;9.820;2022-07-10T20:04:33;97068.38;;;18.22;48.57
40596;BME280;26304;48.794;9.820;2022-07-10T20:10:17;97059.16;;;18.12;49.02
40596;BME280;26304;48.794;9.820;2022-07-10T20:16:00;97053.09;;;18.08;49.34
40596;BME280;26304;48.794;9.820;2022-07-10T20:21:43;97053.09;;;18.08;49.04
40596;BME280;26304;48.794;9.820;2022-07-10T20:27:27;97047.69;;;18.01;49.84
40596;BME280;26304;48.794;9.820;2022-07-10T20:33:09;97057.19;;;17.86;50.01
40596;BME280;26304;48.794;9.820;2022-07-10T20:38:52;97049.25;;;17.63;50.71
40596;BME280;26304;48.794;9.820;2022-07-10T20:44:35;97056.44;;;17.47;51.03
40596;BME280;26304;48.794;9.820;2022-07-10T20:50:18;97052.91;;;17.58;51.16
40596;BME280;26304;48.794;9.820;2022-07-10T20:56:00;97043.91;;;17.59;50.83
40596;BME280;26304;48.794;9.820;2022-07-10T21:01:44;97045.63;;;17.52;51.64
40596;BME280;26304;48.794;9.820;2022-07-10T21:07:27;97056.44;;;17.47;51.36
40596;BME280;26304;48.794;9.820;2022-07-10T21:13:10;97059.91;;;17.31;51.97
40596;BME280;26304;48.794;9.820;2022-07-10T21:18:55;97064.72;;;17.29;52.05
40596;BME280;26304;48.794;9.820;2022-07-10T21:24:37;97069.72;;;17.34;52.09
40596;BME280;26304;48.794;9.820;2022-07-10T21:30:20;97077.56;;;17.15;53.54
40596;BME280;26304;48.794;9.820;2022-07-10T21:36:05;97072.47;;;17.22;53.81
40596;BME280;26304;48.794;9.820;2022-07-10T21:41:47;97075.94;;;17.10;54.51
40596;BME280;26304;48.794;9.820;2022-07-10T21:47:30;97072.16;;;17.08;55.79
40596;BME280;26304;48.794;9.820;2022-07-10T21:53:14;97067.59;;;17.04;55.83
40596;BME280;26304;48.794;9.820;2022-07-10T21:58:56;97071.56;;;16.98;55.82
40596;BME280;26304;48.794;9.820;2022-07-10T22:04:39;97073.00;;;16.96;55.69
40596;BME280;26304;48.794;9.820;2022-07-10T22:10:23;97069.28;;;16.97;55.84
40596;BME280;26304;48.794;9.820;2022-07-10T22:16:05;97059.81;;;16.92;55.99
40596;BME280;26304;48.794;9.820;2022-07-10T22:21:48;97053.81;;;16.92;56.43
40596;BME280;26304;48.794;9.820;2022-07-10T22:27:32;97051.84;;;16.88;56.79
40596;BME280;26304;48.794;9.820;2022-07-10T22:33:14;97045.41;;;16.86;56.53
40596;BME280;26304;48.794;9.820;2022-07-10T22:38:59;97031.78;;;16.80;56.43
40596;BME280;26304;48.794;9.820;2022-07-10T22:44:43;97032.78;;;16.76;56.40
40596;BME280;26304;48.794;9.820;2022-07-10T22:50:26;97034.63;;;16.75;57.01
40596;BME280;26304;48.794;9.820;2022-07-10T22:56:08;97029.31;;;16.71;56.31
40596;BME280;26304;48.794;9.820;2022-07-10T23:01:52;97031.59;;;16.73;56.52
40596;BME280;26304;48.794;9.820;2022-07-10T23:07:35;97030.00;;;16.68;56.80
40596;BME280;26304;48.794;9.820;2022-07-10T23:13:18;97026.28;;;16.69;56.83
40596;BME280;26304;48.794;9.820;2022-07-10T23:19:02;97019.41;;;16.65;57.41
40596;BME280;26304;48.794;9.820;2022-07-10T23:24:44;97014.91;;;16.65;57.82
40596;BME280;26304;48.794;9.820;2022-07-10T23:30:27;97017.88;;;16.64;57.55
40596;BME280;26304;48.794;9.820;2022-07-10T23:36:11;97014.09;;;16.61;57.90
40596;BME280;26304;48.794;9.820;2022-07-10T23:41:53;97021.03;;;16.53;57.49
40596;BME280;26304;48.794;9.820;2022-07-10T23:47:36;97017.41;;;16.58;56.49
40596;BME280;26304;48.794;9.820;2022-07-10T23:53:20;97013.56;;;16.56;57.10
40596;BME280;26304;48.794;9.820;2022-07-10T23:59:02;97008.66;;;16.54;57.54
